sensor_id;sensor_type;location;lat;lon;timestamp;P1;durP1;ratioP1;P2;durP2;ratioP2
39176;SDS011;24904;52.208;21.192;2023-01-15T00:04:22;21.00;;;11.00;;
39176;SDS011;24904;52.208;21.192;2023-01-15T00:09:25;18.30;;;10.50;;
39176;SDS011;24904;52.208;21.192;2023-01-15T00:14:28;19.40;;;10.90;;
39176;SDS011;24904;52.208;21.192;2023-01-15T00:19:31;20.00;;;11.40;;
39176;SDS011;24904;52.208;21.192;2023-01-15T00:24:35;24.00;;;12.20;;
39176;SDS011;24904;52.208;21.192;2023-01-15T00:29:56;18.80;;;11.20;;
39176;SDS011;24904;52.208;21.192;2023-01-15T00:34:59;22.10;;;11.20;;
39176;SDS011;24904;52.208;21.192;2023-01-15T00:40:04;21.90;;;10.30;;
39176;SDS011;24904;52.208;21.192;2023-01-15T00:45:08;20.90;;;11.10;;
39176;SDS011;24904;52.208;21.192;2023-01-15T00:50:13;20.40;;;9.60;;
39176;SDS011;24904;52.208;21.192;2023-01-15T00:55:17;17.60;;;9.60;;
39176;SDS011;24904;52.208;21.192;2023-01-15T01:00:20;17.60;;;9.50;;
39176;SDS011;24904;52.208;21.192;2023-01-15T01:05:23;19.00;;;9.70;;
39176;SDS011;24904;52.208;21.192;2023-01-15T01:10:26;16.70;;;8.80;;
39176;SDS011;24904;52.208;21.192;2023-01-15T01:15:31;17.20;;;9.50;;
39176;SDS011;24904;52.208;21.192;2023-01-15T01:20:36;19.70;;;9.20;;
39176;SDS011;24904;52.208;21.192;2023-01-15T01:25:40;15.30;;;8.50;;
39176;SDS011;24904;52.208;21.192;2023-01-15T01:30:43;12.10;;;7.90;;
39176;SDS011;24904;52.208;21.192;2023-01-15T01:35:47;15.00;;;8.80;;
39176;SDS011;24904;52.208;21.192;2023-01-15T01:40:51;15.00;;;8.10;;
39176;SDS011;24904;52.208;21.192;2023-01-15T01:45:54;14.60;;;8.20;;
39176;SDS011;24904;52.208;21.192;2023-01-15T01:50:59;13.90;;;8.40;;
39176;SDS011;24904;52.208;21.192;2023-01-15T01:56:07;14.30;;;8.40;;
39176;SDS011;24904;52.208;21.192;2023-01-15T02:01:12;12.70;;;7.80;;
39176;SDS011;24904;52.208;21.192;2023-01-15T02:06:15;16.90;;;8.60;;
39176;SDS011;24904;52.208;21.192;2023-01-15T02:11:19;18.60;;;9.10;;
39176;SDS011;24904;52.208;21.192;2023-01-15T02:16:24;17.80;;;9.90;;
39176;SDS011;24904;52.208;21.192;2023-01-15T02:21:35;15.50;;;9.10;;
39176;SDS011;24904;52.208;21.192;2023-01-15T02:27:00;17.60;;;9.00;;
39176;SDS011;24904;52.208;21.192;2023-01-15T02:32:15;17.60;;;9.40;;
39176;SDS011;24904;52.208;21.192;2023-01-15T02:37:23;16.40;;;9.40;;
39176;SDS011;24904;52.208;21.192;2023-01-15T02:42:28;14.80;;;8.90;;
39176;SDS011;24904;52.208;21.192;2023-01-15T02:47:34;18.10;;;9.00;;
39176;SDS011;24904;52.208;21.192;2023-01-15T02:52:42;17.70;;;9.10;;
39176;SDS011;24904;52.208;21.192;2023-01-15T02:57:50;19.60;;;9.80;;
39176;SDS011;24904;52.208;21.192;2023-01-15T03:02:57;16.70;;;9.30;;
39176;SDS011;24904;52.208;21.192;2023-01-15T03:08:04;16.50;;;9.00;;
39176;SDS011;24904;52.208;21.192;2023-01-15T03:13:10;17.20;;;8.60;;
39176;SDS011;24904;52.208;21.192;2023-01-15T03:18:24;14.80;;;8.80;;
39176;SDS011;24904;52.208;21.192;2023-01-15T03:23:33;16.30;;;8.70;;
39176;SDS011;24904;52.208;21.192;2023-01-15T03:28:41;16.80;;;9.40;;
39176;SDS011;24904;52.208;21.192;2023-01-15T03:33:45;13.00;;;7.80;;
39176;SDS011;24904;52.208;21.192;2023-01-15T03:38:52;15.70;;;7.90;;
39176;SDS011;24904;52.208;21.192;2023-01-15T03:44:15;15.10;;;7.90;;
39176;SDS011;24904;52.208;21.192;2023-01-15T03:49:28;13.20;;;7.40;;
39176;SDS011;24904;52.208;21.192;2023-01-15T03:54:48;13.40;;;7.20;;
39176;SDS011;24904;52.208;21.192;2023-01-15T03:59:55;12.10;;;6.80;;
39176;SDS011;24904;52.208;21.192;2023-01-15T04:05:04;13.50;;;7.60;;
39176;SDS011;24904;52.208;21.192;2023-01-15T04:10:09;12.00;;;6.80;;
39176;SDS011;24904;52.208;21.192;2023-01-15T04:15:13;11.60;;;6.60;;
39176;SDS011;24904;52.208;21.192;2023-01-15T04:20:17;12.10;;;6.30;;
39176;SDS011;24904;52.208;21.192;2023-01-15T04:25:21;12.60;;;6.40;;
39176;SDS011;24904;52.208;21.192;2023-01-15T04:30:25;10.90;;;5.90;;
39176;SDS011;24904;52.208;21.192;2023-01-15T04:35:28;10.40;;;6.20;;
39176;SDS011;24904;52.208;21.192;2023-01-15T04:40:31;12.30;;;5.70;;
39176;SDS011;24904;52.208;21.192;2023-01-15T04:45:53;11.60;;;6.00;;
39176;SDS011;24904;52.208;21.192;2023-01-15T04:50:56;10.00;;;5.80;;
39176;SDS011;24904;52.208;21.192;2023-01-15T04:56:03;8.90;;;5.10;;
39176;SDS011;24904;52.208;21.192;2023-01-15T05:01:10;9.40;;;5.40;;
39176;SDS011;24904;52.208;21.192;2023-01-15T05:06:13;10.40;;;5.30;;
39176;SDS011;24904;52.208;21.192;2023-01-15T05:11:18;7.80;;;4.40;;
39176;SDS011;24904;52.208;21.192;2023-01-15T05:16:22;9.70;;;4.90;;
39176;SDS011;24904;52.208;21.192;2023-01-15T05:21:28;9.20;;;4.80;;
39176;SDS011;24904;52.208;21.192;2023-01-15T05:26:32;8.00;;;4.40;;
39176;SDS011;24904;52.208;21.192;2023-01-15T05:31:36;7.30;;;4.10;;
39176;SDS011;24904;52.208;21.192;2023-01-15T05:36:40;7.40;;;3.70;;
39176;SDS011;24904;52.208;21.192;2023-01-15T05:41:43;7.90;;;3.90;;
39176;SDS011;24904;52.208;21.192;2023-01-15T05:46:53;9.10;;;4.50;;
39176;SDS011;24904;52.208;21.192;2023-01-15T05:51:58;6.10;;;3.40;;
39176;SDS011;24904;52.208;21.192;2023-01-15T05:57:02;9.60;;;3.90;;
39176;SDS011;24904;52.208;21.192;2023-01-15T06:02:05;7.10;;;4.00;;
39176;SDS011;24904;52.208;21.192;2023-01-15T06:07:09;10.10;;;4.20;;
39176;SDS011;24904;52.208;21.192;2023-01-15T06:12:12;5.70;;;3.60;;
39176;SDS011;24904;52.208;21.192;2023-01-15T06:17:15;10.40;;;4.00;;
39176;SDS011;24904;52.208;21.192;2023-01-15T06:22:19;5.40;;;3.00;;
39176;SDS011;24904;52.208;21.192;2023-01-15T06:27:22;7.00;;;3.30;;
39176;SDS011;24904;52.208;21.192;2023-01-15T06:32:25;6.90;;;3.50;;
39176;SDS011;24904;52.208;21.192;2023-01-15T06:37:29;6.90;;;3.70;;
39176;SDS011;24904;52.208;21.192;2023-01-15T06:42:32;6.60;;;3.20;;
39176;SDS011;24904;52.208;21.192;2023-01-15T06:47:53;5.80;;;3.40;;
39176;SDS011;24904;52.208;21.192;2023-01-15T06:52:57;4.50;;;2.80;;
39176;SDS011;24904;52.208;21.192;2023-01-15T06:58:02;5.10;;;2.70;;
39176;SDS011;24904;52.208;21.192;2023-01-15T07:03:05;5.60;;;2.60;;
39176;SDS011;24904;52.208;21.192;2023-01-15T07:08:08;5.70;;;2.90;;
39176;SDS011;24904;52.208;21.192;2023-01-15T07:13:11;6.70;;;3.80;;
39176;SDS011;24904;52.208;21.192;2023-01-15T07:18:14;12.10;;;3.60;;
39176;SDS011;24904;52.208;21.192;2023-01-15T07:23:18;6.30;;;3.20;;
39176;SDS011;24904;52.208;21.192;2023-01-15T07:28:21;4.90;;;2.90;;
39176;SDS011;24904;52.208;21.192;2023-01-15T07:33:25;5.90;;;3.40;;
39176;SDS011;24904;52.208;21.192;2023-01-15T07:38:28;5.20;;;3.00;;
39176;SDS011;24904;52.208;21.192;2023-01-15T07:43:31;5.20;;;2.80;;
39176;SDS011;24904;52.208;21.192;2023-01-15T07:48:52;5.00;;;2.70;;
39176;SDS011;24904;52.208;21.192;2023-01-15T07:54:13;7.70;;;3.10;;
39176;SDS011;24904;52.208;21.192;2023-01-15T07:59:16;5.10;;;3.00;;
39176;SDS011;24904;52.208;21.192;2023-01-15T08:04:20;5.20;;;2.90;;
39176;SDS011;24904;52.208;21.192;2023-01-15T08:09:24;5.70;;;2.90;;
39176;SDS011;24904;52.208;21.192;2023-01-15T08:14:28;6.20;;;3.60;;
39176;SDS011;24904;52.208;21.192;2023-01-15T08:19:49;5.30;;;3.20;;
39176;SDS011;24904;52.208;21.192;2023-01-15T08:24:52;6.00;;;2.80;;
39176;SDS011;24904;52.208;21.192;2023-01-15T08:29:55;4.60;;;2.70;;
39176;SDS011;24904;52.208;21.192;2023-01-15T08:34:58;4.90;;;2.70;;
39176;SDS011;24904;52.208;21.192;2023-01-15T08:40:01;5.80;;;3.20;;
39176;SDS011;24904;52.208;21.192;2023-01-15T08:45:06;5.10;;;3.20;;
39176;SDS011;24904;52.208;21.192;2023-01-15T08:50:10;7.00;;;2.90;;
39176;SDS011;24904;52.208;21.192;2023-01-15T08:55:14;6.00;;;2.70;;
39176;SDS011;24904;52.208;21.192;2023-01-15T09:00:17;7.00;;;3.10;;
39176;SDS011;24904;52.208;21.192;2023-01-15T09:05:21;5.20;;;2.90;;
39176;SDS011;24904;52.208;21.192;2023-01-15T09:10:25;5.80;;;3.30;;
39176;SDS011;24904;52.208;21.192;2023-01-15T09:15:28;7.90;;;3.10;;
39176;SDS011;24904;52.208;21.192;2023-01-15T09:20:33;7.50;;;3.40;;
39176;SDS011;24904;52.208;21.192;2023-01-15T09:25:37;6.80;;;3.20;;
39176;SDS011;24904;52.208;21.192;2023-01-15T09:30:40;6.50;;;3.20;;
39176;SDS011;24904;52.208;21.192;2023-01-15T09:35:43;5.60;;;3.20;;
39176;SDS011;24904;52.208;21.192;2023-01-15T09:40:47;7.00;;;3.30;;
39176;SDS011;24904;52.208;21.192;2023-01-15T09:45:53;7.90;;;3.60;;
39176;SDS011;24904;52.208;21.192;2023-01-15T09:51:02;7.50;;;3.90;;
39176;SDS011;24904;52.208;21.192;2023-01-15T09:56:19;8.60;;;3.70;;
39176;SDS011;24904;52.208;21.192;2023-01-15T10:01:24;6.50;;;3.70;;
39176;SDS011;24904;52.208;21.192;2023-01-15T10:06:31;7.00;;;3.50;;
39176;SDS011;24904;52.208;21.192;2023-01-15T10:11:42;6.30;;;3.60;;
39176;SDS011;24904;52.208;21.192;2023-01-15T10:17:07;9.60;;;3.70;;
39176;SDS011;24904;52.208;21.192;2023-01-15T10:22:27;8.50;;;4.20;;
39176;SDS011;24904;52.208;21.192;2023-01-15T10:27:39;7.70;;;3.90;;
39176;SDS011;24904;52.208;21.192;2023-01-15T10:32:48;8.90;;;4.70;;
39176;SDS011;24904;52.208;21.192;2023-01-15T10:37:57;6.40;;;3.40;;
39176;SDS011;24904;52.208;21.192;2023-01-15T10:43:10;7.30;;;4.00;;
39176;SDS011;24904;52.208;21.192;2023-01-15T10:48:24;8.50;;;4.20;;
39176;SDS011;24904;52.208;21.192;2023-01-15T10:53:36;8.10;;;4.50;;
39176;SDS011;24904;52.208;21.192;2023-01-15T10:58:44;8.90;;;4.00;;
39176;SDS011;24904;52.208;21.192;2023-01-15T11:03:50;8.50;;;4.30;;
39176;SDS011;24904;52.208;21.192;2023-01-15T11:08:53;6.80;;;4.20;;
39176;SDS011;24904;52.208;21.192;2023-01-15T11:13:59;7.70;;;4.40;;
39176;SDS011;24904;52.208;21.192;2023-01-15T11:19:23;8.80;;;4.50;;
39176;SDS011;24904;52.208;21.192;2023-01-15T11:24:44;10.90;;;5.80;;
39176;SDS011;24904;52.208;21.192;2023-01-15T11:29:54;10.00;;;4.90;;
39176;SDS011;24904;52.208;21.192;2023-01-15T11:34:59;11.90;;;4.80;;
39176;SDS011;24904;52.208;21.192;2023-01-15T11:40:04;9.60;;;5.40;;
39176;SDS011;24904;52.208;21.192;2023-01-15T11:45:18;11.20;;;5.60;;
39176;SDS011;24904;52.208;21.192;2023-01-15T11:50:47;10.50;;;5.40;;
39176;SDS011;24904;52.208;21.192;2023-01-15T11:55:54;12.50;;;5.80;;
39176;SDS011;24904;52.208;21.192;2023-01-15T12:01:01;9.40;;;5.90;;
39176;SDS011;24904;52.208;21.192;2023-01-15T12:06:05;10.60;;;6.20;;
39176;SDS011;24904;52.208;21.192;2023-01-15T12:11:18;9.50;;;5.70;;
39176;SDS011;24904;52.208;21.192;2023-01-15T12:16:32;10.40;;;6.00;;
39176;SDS011;24904;52.208;21.192;2023-01-15T12:21:51;11.30;;;5.60;;
39176;SDS011;24904;52.208;21.192;2023-01-15T12:32:53;14.00;;;6.80;;
39176;SDS011;24904;52.208;21.192;2023-01-15T12:38:03;10.80;;;5.90;;
39176;SDS011;24904;52.208;21.192;2023-01-15T12:43:18;9.10;;;5.50;;
39176;SDS011;24904;52.208;21.192;2023-01-15T12:48:44;10.80;;;6.20;;
39176;SDS011;24904;52.208;21.192;2023-01-15T12:53:52;8.50;;;5.40;;
39176;SDS011;24904;52.208;21.192;2023-01-15T12:59:00;10.50;;;6.30;;
39176;SDS011;24904;52.208;21.192;2023-01-15T13:04:11;12.50;;;7.10;;
39176;SDS011;24904;52.208;21.192;2023-01-15T13:09:22;13.40;;;6.60;;
39176;SDS011;24904;52.208;21.192;2023-01-15T13:14:35;11.20;;;6.80;;
39176;SDS011;24904;52.208;21.192;2023-01-15T13:19:41;12.30;;;6.50;;
39176;SDS011;24904;52.208;21.192;2023-01-15T13:30:32;13.10;;;7.30;;
39176;SDS011;24904;52.208;21.192;2023-01-15T13:35:53;12.30;;;6.30;;
39176;SDS011;24904;52.208;21.192;2023-01-15T13:41:05;10.80;;;6.50;;
39176;SDS011;24904;52.208;21.192;2023-01-15T13:46:10;12.00;;;7.30;;
39176;SDS011;24904;52.208;21.192;2023-01-15T13:51:23;10.00;;;6.20;;
39176;SDS011;24904;52.208;21.192;2023-01-15T13:56:30;13.00;;;6.90;;
39176;SDS011;24904;52.208;21.192;2023-01-15T14:01:40;15.90;;;7.80;;
39176;SDS011;24904;52.208;21.192;2023-01-15T14:06:45;12.10;;;6.50;;
39176;SDS011;24904;52.208;21.192;2023-01-15T14:11:56;12.20;;;6.80;;
39176;SDS011;24904;52.208;21.192;2023-01-15T14:17:09;14.00;;;6.90;;
39176;SDS011;24904;52.208;21.192;2023-01-15T14:22:37;10.40;;;6.20;;
39176;SDS011;24904;52.208;21.192;2023-01-15T14:28:03;12.00;;;6.50;;
39176;SDS011;24904;52.208;21.192;2023-01-15T14:33:24;10.70;;;6.50;;
39176;SDS011;24904;52.208;21.192;2023-01-15T14:38:32;13.70;;;7.40;;
39176;SDS011;24904;52.208;21.192;2023-01-15T14:43:36;13.10;;;7.50;;
39176;SDS011;24904;52.208;21.192;2023-01-15T14:48:42;14.80;;;7.10;;
39176;SDS011;24904;52.208;21.192;2023-01-15T14:53:45;14.50;;;7.40;;
39176;SDS011;24904;52.208;21.192;2023-01-15T14:58:53;12.10;;;7.20;;
39176;SDS011;24904;52.208;21.192;2023-01-15T15:04:02;16.30;;;7.40;;
39176;SDS011;24904;52.208;21.192;2023-01-15T15:16:13;15.00;;;8.20;;
39176;SDS011;24904;52.208;21.192;2023-01-15T15:21:25;14.30;;;7.90;;
39176;SDS011;24904;52.208;21.192;2023-01-15T15:26:34;17.10;;;8.30;;
39176;SDS011;24904;52.208;21.192;2023-01-15T15:31:42;14.60;;;8.60;;
39176;SDS011;24904;52.208;21.192;2023-01-15T15:36:50;14.90;;;7.90;;
39176;SDS011;24904;52.208;21.192;2023-01-15T15:41:57;15.70;;;8.30;;
39176;SDS011;24904;52.208;21.192;2023-01-15T15:47:22;15.40;;;8.20;;
39176;SDS011;24904;52.208;21.192;2023-01-15T15:52:47;14.70;;;8.60;;
39176;SDS011;24904;52.208;21.192;2023-01-15T15:57:53;16.50;;;8.90;;
39176;SDS011;24904;52.208;21.192;2023-01-15T16:03:03;15.90;;;8.20;;
39176;SDS011;24904;52.208;21.192;2023-01-15T16:08:21;15.30;;;8.10;;
39176;SDS011;24904;52.208;21.192;2023-01-15T16:13:27;14.30;;;7.80;;
39176;SDS011;24904;52.208;21.192;2023-01-15T16:18:37;15.80;;;8.30;;
39176;SDS011;24904;52.208;21.192;2023-01-15T16:23:55;14.10;;;7.70;;
39176;SDS011;24904;52.208;21.192;2023-01-15T16:29:03;15.70;;;8.60;;
39176;SDS011;24904;52.208;21.192;2023-01-15T16:34:19;16.40;;;8.60;;
39176;SDS011;24904;52.208;21.192;2023-01-15T16:39:27;17.90;;;9.40;;
39176;SDS011;24904;52.208;21.192;2023-01-15T16:44:38;17.10;;;8.30;;
39176;SDS011;24904;52.208;21.192;2023-01-15T16:49:48;15.30;;;8.40;;
39176;SDS011;24904;52.208;21.192;2023-01-15T16:54:54;14.40;;;8.80;;
39176;SDS011;24904;52.208;21.192;2023-01-15T17:00:04;17.40;;;9.80;;
39176;SDS011;24904;52.208;21.192;2023-01-15T17:05:29;16.10;;;9.50;;
39176;SDS011;24904;52.208;21.192;2023-01-15T17:10:34;19.20;;;9.00;;
39176;SDS011;24904;52.208;21.192;2023-01-15T17:15:40;15.00;;;7.50;;
39176;SDS011;24904;52.208;21.192;2023-01-15T17:20:45;13.10;;;6.90;;
39176;SDS011;24904;52.208;21.192;2023-01-15T17:25:50;13.70;;;7.30;;
39176;SDS011;24904;52.208;21.192;2023-01-15T17:31:00;16.50;;;7.30;;
39176;SDS011;24904;52.208;21.192;2023-01-15T17:36:07;15.00;;;7.20;;
39176;SDS011;24904;52.208;21.192;2023-01-15T17:41:13;16.30;;;8.90;;
39176;SDS011;24904;52.208;21.192;2023-01-15T17:46:19;21.20;;;7.40;;
39176;SDS011;24904;52.208;21.192;2023-01-15T17:51:25;14.10;;;7.20;;
39176;SDS011;24904;52.208;21.192;2023-01-15T17:56:31;18.00;;;7.50;;
39176;SDS011;24904;52.208;21.192;2023-01-15T18:01:53;18.70;;;7.30;;
39176;SDS011;24904;52.208;21.192;2023-01-15T18:07:16;13.90;;;7.50;;
39176;SDS011;24904;52.208;21.192;2023-01-15T18:12:25;18.90;;;10.10;;
39176;SDS011;24904;52.208;21.192;2023-01-15T18:17:31;16.70;;;8.20;;
39176;SDS011;24904;52.208;21.192;2023-01-15T18:22:36;14.30;;;8.00;;
39176;SDS011;24904;52.208;21.192;2023-01-15T18:27:41;15.70;;;7.30;;
39176;SDS011;24904;52.208;21.192;2023-01-15T18:32:48;14.10;;;7.20;;
39176;SDS011;24904;52.208;21.192;2023-01-15T18:37:53;11.60;;;6.40;;
39176;SDS011;24904;52.208;21.192;2023-01-15T18:42:58;16.20;;;8.80;;
39176;SDS011;24904;52.208;21.192;2023-01-15T18:48:21;17.60;;;10.00;;
39176;SDS011;24904;52.208;21.192;2023-01-15T18:53:26;26.60;;;15.20;;
39176;SDS011;24904;52.208;21.192;2023-01-15T18:58:31;25.00;;;13.30;;
39176;SDS011;24904;52.208;21.192;2023-01-15T19:03:36;27.40;;;14.40;;
39176;SDS011;24904;52.208;21.192;2023-01-15T19:08:41;15.40;;;8.70;;
39176;SDS011;24904;52.208;21.192;2023-01-15T19:21:38;24.00;;;16.00;;
39176;SDS011;24904;52.208;21.192;2023-01-15T19:26:43;19.50;;;9.60;;
39176;SDS011;24904;52.208;21.192;2023-01-15T19:31:48;14.10;;;7.90;;
39176;SDS011;24904;52.208;21.192;2023-01-15T19:36:53;14.10;;;9.40;;
39176;SDS011;24904;52.208;21.192;2023-01-15T19:41:59;13.10;;;7.70;;
39176;SDS011;24904;52.208;21.192;2023-01-15T19:47:22;12.30;;;7.50;;
39176;SDS011;24904;52.208;21.192;2023-01-15T19:52:50;13.10;;;7.20;;
39176;SDS011;24904;52.208;21.192;2023-01-15T19:57:57;9.60;;;6.50;;
39176;SDS011;24904;52.208;21.192;2023-01-15T20:03:03;11.30;;;7.70;;
39176;SDS011;24904;52.208;21.192;2023-01-15T20:08:10;16.30;;;9.40;;
39176;SDS011;24904;52.208;21.192;2023-01-15T20:13:18;13.50;;;7.40;;
39176;SDS011;24904;52.208;21.192;2023-01-15T20:18:42;18.70;;;10.60;;
39176;SDS011;24904;52.208;21.192;2023-01-15T20:23:49;17.60;;;8.60;;
39176;SDS011;24904;52.208;21.192;2023-01-15T20:28:55;26.20;;;14.80;;
39176;SDS011;24904;52.208;21.192;2023-01-15T20:34:00;13.30;;;7.80;;
39176;SDS011;24904;52.208;21.192;2023-01-15T20:39:05;20.50;;;11.60;;
39176;SDS011;24904;52.208;21.192;2023-01-15T20:44:10;12.70;;;7.00;;
39176;SDS011;24904;52.208;21.192;2023-01-15T20:49:32;15.70;;;8.00;;
39176;SDS011;24904;52.208;21.192;2023-01-15T20:54:38;11.00;;;6.10;;
39176;SDS011;24904;52.208;21.192;2023-01-15T20:59:43;26.30;;;11.80;;
39176;SDS011;24904;52.208;21.192;2023-01-15T21:04:48;24.80;;;13.30;;
39176;SDS011;24904;52.208;21.192;2023-01-15T21:09:53;15.00;;;8.80;;
39176;SDS011;24904;52.208;21.192;2023-01-15T21:14:58;15.10;;;8.80;;
39176;SDS011;24904;52.208;21.192;2023-01-15T21:20:04;14.80;;;9.60;;
39176;SDS011;24904;52.208;21.192;2023-01-15T21:25:12;13.00;;;8.20;;
39176;SDS011;24904;52.208;21.192;2023-01-15T21:30:17;14.70;;;8.60;;
39176;SDS011;24904;52.208;21.192;2023-01-15T21:35:26;16.90;;;9.40;;
39176;SDS011;24904;52.208;21.192;2023-01-15T21:40:31;15.50;;;8.20;;
39176;SDS011;24904;52.208;21.192;2023-01-15T21:45:37;13.20;;;7.50;;
39176;SDS011;24904;52.208;21.192;2023-01-15T21:50:42;14.20;;;6.70;;
39176;SDS011;24904;52.208;21.192;2023-01-15T21:55:50;10.70;;;6.20;;
39176;SDS011;24904;52.208;21.192;2023-01-15T22:00:56;10.70;;;6.50;;
39176;SDS011;24904;52.208;21.192;2023-01-15T22:06:02;12.70;;;6.90;;
39176;SDS011;24904;52.208;21.192;2023-01-15T22:11:08;8.90;;;5.80;;
39176;SDS011;24904;52.208;21.192;2023-01-15T22:16:14;8.50;;;5.20;;
39176;SDS011;24904;52.208;21.192;2023-01-15T22:21:20;14.80;;;8.40;;
39176;SDS011;24904;52.208;21.192;2023-01-15T22:26:25;13.70;;;8.50;;
39176;SDS011;24904;52.208;21.192;2023-01-15T22:31:31;15.40;;;9.90;;
39176;SDS011;24904;52.208;21.192;2023-01-15T22:36:36;13.10;;;6.80;;
39176;SDS011;24904;52.208;21.192;2023-01-15T22:41:41;15.50;;;9.60;;
39176;SDS011;24904;52.208;21.192;2023-01-15T22:47:04;12.80;;;7.20;;
39176;SDS011;24904;52.208;21.192;2023-01-15T22:52:09;9.30;;;5.50;;
39176;SDS011;24904;52.208;21.192;2023-01-15T22:57:14;12.20;;;6.20;;
39176;SDS011;24904;52.208;21.192;2023-01-15T23:02:20;11.90;;;6.00;;
39176;SDS011;24904;52.208;21.192;2023-01-15T23:07:39;8.70;;;4.70;;
39176;SDS011;24904;52.208;21.192;2023-01-15T23:12:44;9.50;;;4.40;;
39176;SDS011;24904;52.208;21.192;2023-01-15T23:17:50;12.90;;;6.50;;
39176;SDS011;24904;52.208;21.192;2023-01-15T23:22:55;7.60;;;4.40;;
39176;SDS011;24904;52.208;21.192;2023-01-15T23:28:00;6.70;;;3.90;;
39176;SDS011;24904;52.208;21.192;2023-01-15T23:33:05;7.90;;;4.50;;
39176;SDS011;24904;52.208;21.192;2023-01-15T23:38:10;11.00;;;5.10;;
39176;SDS011;24904;52.208;21.192;2023-01-15T23:43:16;9.80;;;5.70;;
39176;SDS011;24904;52.208;21.192;2023-01-15T23:48:39;9.30;;;5.00;;
39176;SDS011;24904;52.208;21.192;2023-01-15T23:53:44;7.40;;;3.90;;
39176;SDS011;24904;52.208;21.192;2023-01-15T23:58:49;10.60;;;5.00;;
